Time;durP1;ratioP1;P1;durP2;ratioP2;P2;SDS_P1;SDS_P2;PMS_P1;PMS_P2;Temp;Humidity;BMP_temperature;BMP_pressure;BME280_temperature;BME280_humidity;BME280_pressure;Samples;Min_cycle;Max_cycle;Signal;HPM_P1;HPM_P2
2023/07/21 00:00:18;;;;;;;6.93;3.90;;;;;;;;;;5072616;28;20347;-74
2023/07/21 00:02:45;;;;;;;7.50;3.33;;;;;;;;;;5093384;28;20131;-74
2023/07/21 00:05:11;;;;;;;6.35;3.70;;;;;;;;;;5104223;28;20039;-74
2023/07/21 00:07:37;;;;;;;6.90;3.42;;;;;;;;;;5092482;28;20083;-74
2023/07/21 00:10:07;;;;;;;5.60;3.15;;;;;;;;;;5111090;28;20473;-74
2023/07/21 00:12:40;;;;;;;6.63;3.60;;;;;;;;;;5114144;28;20050;-74
2023/07/21 00:15:07;;;;;;;7.50;3.88;;;;;;;;;;5114387;28;20146;-74
2023/07/21 00:17:34;;;;;;;7.82;3.65;;;;;;;;;;5114335;28;20419;-74
2023/07/21 00:20:11;;;;;;;9.73;4.15;;;;;;;;;;5114368;28;20043;-74
2023/07/21 00:22:37;;;;;;;6.53;3.60;;;;;;;;;;5093841;28;20047;-74
2023/07/21 00:25:05;;;;;;;7.18;3.33;;;;;;;;;;5093609;28;20059;-74
2023/07/21 00:27:34;;;;;;;7.43;3.90;;;;;;;;;;5093653;28;20048;-74
2023/07/21 00:30:00;;;;;;;5.78;3.30;;;;;;;;;;5093663;28;20043;-73
2023/07/21 00:32:26;;;;;;;5.38;3.42;;;;;;;;;;5083264;28;20101;-73
2023/07/21 00:34:53;;;;;;;7.68;3.50;;;;;;;;;;5093306;28;20042;-74
2023/07/21 00:37:19;;;;;;;6.40;3.83;;;;;;;;;;5093339;28;20073;-73
2023/07/21 00:39:45;;;;;;;7.68;3.90;;;;;;;;;;5075353;28;20040;-73
2023/07/21 00:42:11;;;;;;;8.80;3.97;;;;;;;;;;5074995;28;20185;-73
2023/07/21 00:44:38;;;;;;;7.75;3.80;;;;;;;;;;5093007;28;20601;-73
2023/07/21 00:47:04;;;;;;;6.30;3.70;;;;;;;;;;5093118;28;20457;-73
2023/07/21 00:49:32;;;;;;;9.57;3.60;;;;;;;;;;5093549;28;20404;-73
2023/07/21 00:51:58;;;;;;;7.57;3.67;;;;;;;;;;5092785;28;20404;-73
2023/07/21 00:54:25;;;;;;;8.32;4.38;;;;;;;;;;5093234;28;20119;-73
2023/07/21 00:56:51;;;;;;;7.22;3.60;;;;;;;;;;5093033;28;20044;-73
2023/07/21 00:59:17;;;;;;;6.57;3.90;;;;;;;;;;5093059;28;20048;-73
2023/07/21 01:01:43;;;;;;;7.00;3.70;;;;;;;;;;5093214;28;20206;-73
2023/07/21 01:04:10;;;;;;;6.82;3.97;;;;;;;;;;5093027;28;20055;-73
2023/07/21 01:06:37;;;;;;;5.70;3.40;;;;;;;;;;5092932;28;20093;-74
2023/07/21 01:09:06;;;;;;;8.73;4.18;;;;;;;;;;5093252;28;20545;-73
2023/07/21 01:11:33;;;;;;;5.75;3.95;;;;;;;;;;5093052;28;20081;-74
2023/07/21 01:14:02;;;;;;;6.88;4.35;;;;;;;;;;5074982;28;20051;-74
2023/07/21 01:16:29;;;;;;;7.30;3.95;;;;;;;;;;5092760;28;20044;-74
2023/07/21 01:18:55;;;;;;;6.60;4.35;;;;;;;;;;5092325;28;20048;-73
2023/07/21 01:21:30;;;;;;;5.75;3.80;;;;;;;;;;5091862;28;20040;-73
2023/07/21 01:24:05;;;;;;;7.25;3.60;;;;;;;;;;5092507;28;20048;-73
2023/07/21 01:26:32;;;;;;;6.47;3.90;;;;;;;;;;5092794;28;20080;-74
2023/07/21 01:28:58;;;;;;;7.63;3.78;;;;;;;;;;5074537;28;20054;-73
2023/07/21 01:31:24;;;;;;;6.80;4.10;;;;;;;;;;5092765;28;20442;-73
2023/07/21 01:33:51;;;;;;;7.45;3.80;;;;;;;;;;5091373;28;20059;-73
2023/07/21 01:36:18;;;;;;;7.05;3.83;;;;;;;;;;5092625;28;20446;-73
2023/07/21 01:38:44;;;;;;;7.72;4.50;;;;;;;;;;5074579;28;20071;-74
2023/07/21 01:41:12;;;;;;;6.35;3.70;;;;;;;;;;5073275;28;20080;-74
2023/07/21 01:43:38;;;;;;;11.25;4.50;;;;;;;;;;5092487;28;20101;-74
2023/07/21 01:46:04;;;;;;;8.15;4.35;;;;;;;;;;5057048;28;20052;-74
2023/07/21 01:48:31;;;;;;;7.70;4.97;;;;;;;;;;5080516;28;20066;-74
2023/07/21 01:50:58;;;;;;;7.70;4.53;;;;;;;;;;5072201;28;20087;-74
2023/07/21 01:53:26;;;;;;;7.75;4.47;;;;;;;;;;5071924;28;20055;-74
2023/07/21 01:55:58;;;;;;;6.82;4.20;;;;;;;;;;5076479;28;20461;-74
2023/07/21 01:58:25;;;;;;;7.57;4.18;;;;;;;;;;5071681;28;20119;-74
2023/07/21 02:00:51;;;;;;;13.77;4.47;;;;;;;;;;5096285;28;20044;-73
2023/07/21 02:03:17;;;;;;;6.32;4.32;;;;;;;;;;5078070;28;20072;-73
2023/07/21 02:05:44;;;;;;;6.85;4.38;;;;;;;;;;5093902;28;20052;-73
2023/07/21 02:08:10;;;;;;;7.63;4.78;;;;;;;;;;5094721;28;20044;-74
2023/07/21 02:10:36;;;;;;;7.93;4.28;;;;;;;;;;5096365;28;20101;-74
2023/07/21 02:13:04;;;;;;;9.38;4.53;;;;;;;;;;5096541;28;20048;-74
2023/07/21 02:15:31;;;;;;;8.73;4.65;;;;;;;;;;5096056;28;20051;-74
2023/07/21 02:17:57;;;;;;;7.68;4.18;;;;;;;;;;5096273;28;20071;-74
2023/07/21 02:20:23;;;;;;;7.60;4.45;;;;;;;;;;5078161;28;20056;-74
2023/07/21 02:22:49;;;;;;;7.65;4.50;;;;;;;;;;5095938;28;20048;-73
2023/07/21 02:25:15;;;;;;;9.77;4.85;;;;;;;;;;5096213;28;20087;-73
2023/07/21 02:27:42;;;;;;;7.93;4.97;;;;;;;;;;5095985;28;20040;-73
2023/07/21 02:30:09;;;;;;;8.43;4.80;;;;;;;;;;5078084;28;20036;-74
2023/07/21 02:32:35;;;;;;;9.13;5.10;;;;;;;;;;5096060;28;20043;-74
2023/07/21 02:35:01;;;;;;;8.25;5.10;;;;;;;;;;5095975;28;20040;-74
2023/07/21 02:37:28;;;;;;;8.00;4.93;;;;;;;;;;5077597;28;20105;-74
2023/07/21 02:39:54;;;;;;;8.75;4.93;;;;;;;;;;5096057;28;20043;-74
2023/07/21 02:42:20;;;;;;;8.43;4.88;;;;;;;;;;5077204;28;20105;-73
2023/07/21 02:44:46;;;;;;;8.43;5.25;;;;;;;;;;5078941;28;20473;-72
2023/07/21 02:47:16;;;;;;;8.27;5.32;;;;;;;;;;5103244;28;20059;-73
2023/07/21 02:49:42;;;;;;;10.55;5.40;;;;;;;;;;5099865;28;20051;-73
2023/07/21 02:52:08;;;;;;;7.32;5.18;;;;;;;;;;5095149;28;20054;-74
2023/07/21 02:54:35;;;;;;;8.07;5.07;;;;;;;;;;5095889;28;20055;-74
2023/07/21 02:57:01;;;;;;;10.73;5.07;;;;;;;;;;5094607;28;20418;-74
2023/07/21 02:59:28;;;;;;;8.52;5.60;;;;;;;;;;5076715;28;20040;-74
2023/07/21 03:01:57;;;;;;;9.85;4.70;;;;;;;;;;5095202;28;20048;-74
2023/07/21 03:04:25;;;;;;;7.03;4.50;;;;;;;;;;5077124;28;20036;-74
2023/07/21 03:06:52;;;;;;;8.10;4.32;;;;;;;;;;5095017;28;20051;-75
2023/07/21 03:09:18;;;;;;;9.65;4.82;;;;;;;;;;5095602;28;20468;-74
2023/07/21 03:11:44;;;;;;;10.52;4.97;;;;;;;;;;5077156;28;20058;-74
2023/07/21 03:14:10;;;;;;;8.63;4.65;;;;;;;;;;5095553;28;20089;-74
2023/07/21 03:16:38;;;;;;;9.43;5.00;;;;;;;;;;5094736;28;20051;-74
2023/07/21 03:19:04;;;;;;;8.85;4.85;;;;;;;;;;5095244;28;20044;-74
2023/07/21 03:21:30;;;;;;;7.18;4.90;;;;;;;;;;5076703;28;20044;-74
2023/07/21 03:23:57;;;;;;;7.10;4.50;;;;;;;;;;5095194;28;20044;-74
2023/07/21 03:26:24;;;;;;;9.52;5.28;;;;;;;;;;5095143;28;20396;-74
2023/07/21 03:28:51;;;;;;;7.90;5.30;;;;;;;;;;5094994;28;20044;-74
2023/07/21 03:31:17;;;;;;;6.72;4.63;;;;;;;;;;5094894;28;20104;-74
2023/07/21 03:33:43;;;;;;;6.97;4.25;;;;;;;;;;5058747;28;20496;-73
2023/07/21 03:36:09;;;;;;;7.60;4.55;;;;;;;;;;5094330;28;20059;-74
2023/07/21 03:38:36;;;;;;;6.65;4.40;;;;;;;;;;5076890;28;20111;-73
2023/07/21 03:41:06;;;;;;;8.45;4.75;;;;;;;;;;5094614;28;20393;-73
2023/07/21 03:43:32;;;;;;;6.63;4.50;;;;;;;;;;5094708;28;20051;-73
2023/07/21 03:46:02;;;;;;;8.80;4.25;;;;;;;;;;5094143;28;20048;-73
2023/07/21 03:48:28;;;;;;;6.43;4.90;;;;;;;;;;5093875;28;20480;-73
2023/07/21 03:51:02;;;;;;;7.80;4.53;;;;;;;;;;5075581;28;20036;-73
2023/07/21 03:53:28;;;;;;;8.43;4.80;;;;;;;;;;5094753;28;20377;-73
2023/07/21 03:55:55;;;;;;;7.97;4.47;;;;;;;;;;5094381;28;20040;-73
2023/07/21 03:58:21;;;;;;;8.20;4.53;;;;;;;;;;5094093;28;20395;-73
2023/07/21 04:00:47;;;;;;;6.80;4.40;;;;;;;;;;5094392;28;20059;-73
2023/07/21 04:03:14;;;;;;;8.57;4.55;;;;;;;;;;5094060;28;20080;-72
2023/07/21 04:05:40;;;;;;;7.60;4.47;;;;;;;;;;5075923;28;20047;-74
2023/07/21 04:08:07;;;;;;;9.07;4.10;;;;;;;;;;5076328;28;20392;-73
2023/07/21 04:10:33;;;;;;;8.13;4.45;;;;;;;;;;5094155;28;20044;-72
2023/07/21 04:12:59;;;;;;;8.32;4.60;;;;;;;;;;5075463;28;20048;-73
2023/07/21 04:15:27;;;;;;;9.65;4.25;;;;;;;;;;5093711;28;20075;-73
2023/07/21 04:17:53;;;;;;;7.25;4.22;;;;;;;;;;5075359;28;20040;-74
2023/07/21 04:20:19;;;;;;;7.15;4.38;;;;;;;;;;5093890;28;20157;-74
2023/07/21 04:22:46;;;;;;;9.60;4.63;;;;;;;;;;5092726;28;20039;-74
2023/07/21 04:25:12;;;;;;;8.75;4.38;;;;;;;;;;5092910;28;20043;-73
2023/07/21 04:27:39;;;;;;;9.18;4.32;;;;;;;;;;5093813;28;20036;-73
2023/07/21 04:30:05;;;;;;;7.43;3.95;;;;;;;;;;5075777;28;20040;-73
2023/07/21 04:32:31;;;;;;;9.45;3.78;;;;;;;;;;5091749;28;20118;-73
2023/07/21 04:34:57;;;;;;;8.40;3.80;;;;;;;;;;5093202;28;20408;-74
2023/07/21 04:37:24;;;;;;;10.77;3.67;;;;;;;;;;5093340;28;20105;-73
2023/07/21 04:39:50;;;;;;;6.47;3.80;;;;;;;;;;5090882;28;20041;-74
2023/07/21 04:42:16;;;;;;;9.00;3.92;;;;;;;;;;5092885;28;20048;-74
2023/07/21 04:44:44;;;;;;;12.05;4.43;;;;;;;;;;5093573;28;20088;-74
2023/07/21 04:47:10;;;;;;;7.82;3.92;;;;;;;;;;5092936;28;20484;-74
2023/07/21 04:49:37;;;;;;;6.30;3.63;;;;;;;;;;5093421;28;20047;-74
2023/07/21 04:52:04;;;;;;;8.40;3.80;;;;;;;;;;5110150;28;20048;-74
2023/07/21 04:54:30;;;;;;;7.72;3.17;;;;;;;;;;5093029;28;20044;-74
2023/07/21 04:56:56;;;;;;;5.72;3.72;;;;;;;;;;5058518;28;20051;-74
2023/07/21 04:59:22;;;;;;;5.93;3.63;;;;;;;;;;5092685;28;20488;-74
2023/07/21 05:01:48;;;;;;;6.60;3.80;;;;;;;;;;5092898;28;20059;-72
2023/07/21 05:04:16;;;;;;;5.57;3.30;;;;;;;;;;5093007;28;20480;-72
2023/07/21 05:06:43;;;;;;;7.25;3.83;;;;;;;;;;5074874;28;20047;-73
2023/07/21 05:09:13;;;;;;;9.95;3.67;;;;;;;;;;5093274;28;20044;-74
2023/07/21 05:11:39;;;;;;;7.25;3.70;;;;;;;;;;5073886;28;20079;-74
2023/07/21 05:14:05;;;;;;;9.82;3.53;;;;;;;;;;5092888;28;20464;-74
2023/07/21 05:16:32;;;;;;;7.57;3.40;;;;;;;;;;5092758;28;20044;-74
2023/07/21 05:18:58;;;;;;;9.48;4.00;;;;;;;;;;5092920;28;20067;-73
2023/07/21 05:21:24;;;;;;;8.23;3.40;;;;;;;;;;5074552;28;20039;-73
2023/07/21 05:23:50;;;;;;;10.02;3.60;;;;;;;;;;5092781;28;20082;-73
2023/07/21 05:26:17;;;;;;;12.45;3.70;;;;;;;;;;5092526;28;20551;-72
2023/07/21 05:28:43;;;;;;;8.68;3.65;;;;;;;;;;5092049;28;20047;-73
2023/07/21 05:31:12;;;;;;;8.27;3.17;;;;;;;;;;5057810;28;20097;-73
2023/07/21 05:33:38;;;;;;;6.43;3.20;;;;;;;;;;5074618;28;20119;-73
2023/07/21 05:36:09;;;;;;;10.60;3.50;;;;;;;;;;5092360;28;20039;-75
2023/07/21 05:38:37;;;;;;;5.57;3.17;;;;;;;;;;5092884;28;20055;-73
2023/07/21 05:41:03;;;;;;;5.93;3.22;;;;;;;;;;5073779;28;20048;-73
2023/07/21 05:43:29;;;;;;;7.30;3.58;;;;;;;;;;5074773;28;20385;-73
2023/07/21 05:45:56;;;;;;;9.43;3.20;;;;;;;;;;5073981;28;20056;-73
2023/07/21 05:48:24;;;;;;;7.15;3.25;;;;;;;;;;5091674;28;20048;-74
2023/07/21 05:50:53;;;;;;;8.38;3.35;;;;;;;;;;5092584;28;20360;-73
2023/07/21 05:53:19;;;;;;;7.00;3.40;;;;;;;;;;5092196;28;20055;-73
2023/07/21 05:55:46;;;;;;;6.63;3.30;;;;;;;;;;5092396;28;20040;-73
2023/07/21 05:58:13;;;;;;;8.10;3.20;;;;;;;;;;5092577;28;20093;-74
2023/07/21 06:00:39;;;;;;;6.25;3.08;;;;;;;;;;5093124;28;20109;-72
2023/07/21 06:03:06;;;;;;;8.48;3.45;;;;;;;;;;5091604;28;20058;-73
2023/07/21 06:05:36;;;;;;;9.65;3.30;;;;;;;;;;5074182;28;20044;-73
2023/07/21 06:08:05;;;;;;;10.25;3.28;;;;;;;;;;5092672;28;20399;-73
2023/07/21 06:10:33;;;;;;;6.30;3.00;;;;;;;;;;5092257;28;20537;-74
2023/07/21 06:12:59;;;;;;;7.00;3.10;;;;;;;;;;5094428;28;20108;-72
2023/07/21 06:15:25;;;;;;;9.35;3.13;;;;;;;;;;5082059;28;20044;-72
2023/07/21 06:17:52;;;;;;;7.57;3.10;;;;;;;;;;5096277;28;20532;-73
2023/07/21 06:20:20;;;;;;;7.10;2.92;;;;;;;;;;5092465;28;20086;-73
2023/07/21 06:22:48;;;;;;;7.47;3.00;;;;;;;;;;5090480;28;20086;-75
2023/07/21 06:25:14;;;;;;;6.07;3.10;;;;;;;;;;5072233;28;20052;-74
2023/07/21 06:27:41;;;;;;;5.90;2.70;;;;;;;;;;5072822;28;20452;-75
2023/07/21 06:30:07;;;;;;;4.85;2.80;;;;;;;;;;5074624;28;20036;-76
2023/07/21 06:32:33;;;;;;;9.27;3.20;;;;;;;;;;5090381;28;20115;-75
2023/07/21 06:34:59;;;;;;;6.80;2.80;;;;;;;;;;5073507;28;20044;-75
2023/07/21 06:37:25;;;;;;;5.57;2.72;;;;;;;;;;5092256;28;20040;-76
2023/07/21 06:39:52;;;;;;;5.90;2.67;;;;;;;;;;5093019;28;20046;-75
2023/07/21 06:42:18;;;;;;;5.57;2.50;;;;;;;;;;5094781;28;20075;-75
2023/07/21 06:44:44;;;;;;;3.22;2.05;;;;;;;;;;5094580;28;20059;-75
2023/07/21 06:47:11;;;;;;;5.07;2.13;;;;;;;;;;5108410;28;20047;-75
2023/07/21 06:49:38;;;;;;;4.25;2.15;;;;;;;;;;5057517;28;20046;-75
2023/07/21 06:52:04;;;;;;;4.90;2.10;;;;;;;;;;5057055;28;20045;-75
2023/07/21 06:54:31;;;;;;;6.40;2.10;;;;;;;;;;5093406;28;20040;-76
2023/07/21 06:56:58;;;;;;;4.22;2.05;;;;;;;;;;5057336;28;20436;-76
2023/07/21 06:59:24;;;;;;;3.83;1.90;;;;;;;;;;5075364;28;20158;-75
2023/07/21 07:01:51;;;;;;;3.80;2.00;;;;;;;;;;5077909;28;20084;-76
2023/07/21 07:04:17;;;;;;;6.60;2.10;;;;;;;;;;5094643;28;20040;-74
2023/07/21 07:06:43;;;;;;;3.78;1.95;;;;;;;;;;5087151;28;20177;-75
2023/07/21 07:09:10;;;;;;;2.67;1.67;;;;;;;;;;5116017;28;20054;-75
2023/07/21 07:11:37;;;;;;;4.55;1.90;;;;;;;;;;5098762;28;20071;-75
2023/07/21 07:14:03;;;;;;;4.47;2.20;;;;;;;;;;5095298;28;20040;-75
2023/07/21 07:16:29;;;;;;;5.45;2.28;;;;;;;;;;5095011;28;20052;-75
2023/07/21 07:18:55;;;;;;;4.65;2.00;;;;;;;;;;5076828;28;20058;-75
2023/07/21 07:21:21;;;;;;;2.70;1.80;;;;;;;;;;5094823;28;20447;-75
2023/07/21 07:23:47;;;;;;;3.75;1.75;;;;;;;;;;5094572;28;20040;-74
2023/07/21 07:26:13;;;;;;;6.85;1.90;;;;;;;;;;5095010;28;20105;-76
2023/07/21 07:28:39;;;;;;;2.85;1.80;;;;;;;;;;5094815;28;20048;-75
2023/07/21 07:31:06;;;;;;;3.22;1.88;;;;;;;;;;5076648;28;20134;-75
2023/07/21 07:33:33;;;;;;;4.18;1.98;;;;;;;;;;5094655;28;20463;-76
2023/07/21 07:36:02;;;;;;;3.95;2.20;;;;;;;;;;5094767;28;20036;-75
2023/07/21 07:38:29;;;;;;;3.10;1.90;;;;;;;;;;5094515;28;20079;-75
2023/07/21 07:41:00;;;;;;;3.55;1.80;;;;;;;;;;5094253;28;20047;-79
2023/07/21 07:43:26;;;;;;;3.20;1.90;;;;;;;;;;5084189;28;20142;-78
2023/07/21 07:45:52;;;;;;;3.72;1.85;;;;;;;;;;5085409;28;20104;-79
2023/07/21 07:48:22;;;;;;;4.55;1.80;;;;;;;;;;5094195;28;20419;-78
2023/07/21 07:50:50;;;;;;;2.83;1.70;;;;;;;;;;5094719;28;20051;-79
2023/07/21 07:53:17;;;;;;;3.60;2.13;;;;;;;;;;5095319;28;20044;-79
2023/07/21 07:55:44;;;;;;;3.55;1.80;;;;;;;;;;5076723;28;20048;-79
2023/07/21 07:58:11;;;;;;;3.47;1.67;;;;;;;;;;5095875;28;20496;-84
2023/07/21 08:00:38;;;;;;;3.80;2.30;;;;;;;;;;5077845;28;20391;-80
2023/07/21 08:03:05;;;;;;;2.70;1.90;;;;;;;;;;5097209;28;20035;-80
2023/07/21 08:05:31;;;;;;;2.47;1.65;;;;;;;;;;5079931;28;20101;-79
2023/07/21 08:08:01;;;;;;;3.13;1.85;;;;;;;;;;5105414;28;20066;-77
2023/07/21 08:10:28;;;;;;;3.38;2.22;;;;;;;;;;5094570;28;20040;-79
2023/07/21 08:12:55;;;;;;;5.15;2.60;;;;;;;;;;5083625;28;20032;-79
2023/07/21 08:15:22;;;;;;;4.13;2.10;;;;;;;;;;5059384;28;20086;-79
2023/07/21 08:17:48;;;;;;;3.85;2.17;;;;;;;;;;5076032;28;20044;-79
2023/07/21 08:20:16;;;;;;;3.40;2.10;;;;;;;;;;5076394;28;20040;-79
2023/07/21 08:22:42;;;;;;;3.88;2.00;;;;;;;;;;5076067;28;20044;-78
2023/07/21 08:25:08;;;;;;;2.75;1.70;;;;;;;;;;5090168;28;20051;-78
2023/07/21 08:27:35;;;;;;;4.00;1.85;;;;;;;;;;5088116;28;20036;-79
2023/07/21 08:30:01;;;;;;;2.30;1.50;;;;;;;;;;5069867;28;20086;-79
2023/07/21 08:32:27;;;;;;;2.47;1.70;;;;;;;;;;5059701;28;20043;-79
2023/07/21 08:34:55;;;;;;;3.72;2.05;;;;;;;;;;5075730;28;20044;-80
2023/07/21 08:37:22;;;;;;;3.95;2.47;;;;;;;;;;5078983;28;20504;-78
2023/07/21 08:39:48;;;;;;;3.75;2.13;;;;;;;;;;5094019;28;20040;-79
2023/07/21 08:42:14;;;;;;;4.78;2.40;;;;;;;;;;5094753;28;20070;-80
2023/07/21 08:44:40;;;;;;;4.15;2.70;;;;;;;;;;5094321;28;20052;-80
2023/07/21 08:47:07;;;;;;;4.00;2.20;;;;;;;;;;5093318;28;20054;-81
2023/07/21 08:49:33;;;;;;;5.78;2.33;;;;;;;;;;5094932;28;20043;-81
2023/07/21 08:52:00;;;;;;;3.97;2.20;;;;;;;;;;5093349;28;20046;-80
2023/07/21 08:54:26;;;;;;;4.75;2.40;;;;;;;;;;5060263;28;20047;-80
2023/07/21 08:56:52;;;;;;;4.90;2.35;;;;;;;;;;5095156;28;20451;-81
2023/07/21 08:59:22;;;;;;;3.38;2.20;;;;;;;;;;5094610;28;20055;-80
2023/07/21 09:01:48;;;;;;;4.65;2.50;;;;;;;;;;5093644;28;20044;-79
2023/07/21 09:04:21;;;;;;;3.25;2.28;;;;;;;;;;5075468;28;20103;-78
2023/07/21 09:06:55;;;;;;;4.68;2.33;;;;;;;;;;5075531;28;20048;-79
2023/07/21 09:09:21;;;;;;;4.32;1.90;;;;;;;;;;5091588;28;20048;-78
2023/07/21 09:11:48;;;;;;;2.22;1.70;;;;;;;;;;5098186;28;20040;-79
2023/07/21 09:14:15;;;;;;;3.60;2.28;;;;;;;;;;5093293;28;20082;-79
2023/07/21 09:16:41;;;;;;;4.50;2.10;;;;;;;;;;5093187;28;20100;-79
2023/07/21 09:19:07;;;;;;;3.78;2.20;;;;;;;;;;5092670;28;20123;-79
2023/07/21 09:21:37;;;;;;;4.47;1.75;;;;;;;;;;5073601;28;20071;-78
2023/07/21 09:24:04;;;;;;;3.13;1.80;;;;;;;;;;5075229;28;20083;-79
2023/07/21 09:26:30;;;;;;;2.65;1.67;;;;;;;;;;5092764;28;20040;-79
2023/07/21 09:28:56;;;;;;;3.83;1.75;;;;;;;;;;5077469;28;20043;-80
2023/07/21 09:31:33;;;;;;;3.20;1.70;;;;;;;;;;5114762;28;20035;-78
2023/07/21 09:34:06;;;;;;;3.05;1.85;;;;;;;;;;5083738;28;20056;-78
2023/07/21 09:36:32;;;;;;;3.30;1.60;;;;;;;;;;5093011;28;20079;-79
2023/07/21 09:39:01;;;;;;;3.75;1.63;;;;;;;;;;5093938;28;20035;-78
2023/07/21 09:41:28;;;;;;;4.00;1.90;;;;;;;;;;5102857;28;20048;-76
2023/07/21 09:43:55;;;;;;;2.90;1.80;;;;;;;;;;5110914;28;20578;-74
2023/07/21 09:46:22;;;;;;;2.95;1.95;;;;;;;;;;5100040;28;20096;-77
2023/07/21 09:48:48;;;;;;;5.25;1.60;;;;;;;;;;5074571;28;20147;-78
2023/07/21 09:51:18;;;;;;;3.33;1.60;;;;;;;;;;5076430;28;20043;-79
2023/07/21 09:53:44;;;;;;;2.33;1.60;;;;;;;;;;5106703;28;20054;-78
2023/07/21 09:56:12;;;;;;;2.63;1.63;;;;;;;;;;5086622;28;20395;-79
2023/07/21 09:58:57;;;;;;;3.42;1.77;;;;;;;;;;5087292;28;20404;-79
2023/07/21 10:01:23;;;;;;;3.37;1.80;;;;;;;;;;5090039;28;20438;-78
2023/07/21 10:03:50;;;;;;;2.72;1.60;;;;;;;;;;5089836;28;20040;-80
2023/07/21 10:06:16;;;;;;;4.65;1.80;;;;;;;;;;5089313;28;20071;-79
2023/07/21 10:08:42;;;;;;;4.50;1.73;;;;;;;;;;5087665;28;20093;-79
2023/07/21 10:11:09;;;;;;;2.38;1.55;;;;;;;;;;5071450;28;20044;-75
2023/07/21 10:13:40;;;;;;;4.35;1.70;;;;;;;;;;5088961;28;20036;-78
2023/07/21 10:16:08;;;;;;;3.13;1.60;;;;;;;;;;5093146;28;20048;-78
2023/07/21 10:18:34;;;;;;;2.00;1.50;;;;;;;;;;5075250;28;20040;-76
2023/07/21 10:21:00;;;;;;;2.78;1.50;;;;;;;;;;5093176;28;20071;-77
2023/07/21 10:23:36;;;;;;;2.28;1.40;;;;;;;;;;5093256;28;20047;-79
2023/07/21 10:26:07;;;;;;;2.47;1.52;;;;;;;;;;5090563;28;20088;-77
2023/07/21 10:28:34;;;;;;;2.85;1.40;;;;;;;;;;5089113;28;20134;-78
2023/07/21 10:31:19;;;;;;;3.08;1.50;;;;;;;;;;5092879;28;20104;-77
2023/07/21 10:34:05;;;;;;;3.47;1.60;;;;;;;;;;5073012;28;20032;-77
2023/07/21 10:36:40;;;;;;;2.30;1.50;;;;;;;;;;5093090;28;20036;-77
2023/07/21 10:39:07;;;;;;;;;;;;;;;;;;5093731;28;20054;-77
2023/07/21 10:41:33;;;;;;;4.80;1.55;;;;;;;;;;5092046;28;20288;-80
2023/07/21 10:43:59;;;;;;;3.60;1.77;;;;;;;;;;5075196;28;20043;-81
2023/07/21 10:46:27;;;;;;;2.88;1.55;;;;;;;;;;5072249;28;20037;-81
2023/07/21 10:48:53;;;;;;;3.25;1.90;;;;;;;;;;5072754;28;20044;-81
2023/07/21 10:51:19;;;;;;;6.13;1.60;;;;;;;;;;5073055;28;20045;-79
2023/07/21 10:53:45;;;;;;;3.42;1.60;;;;;;;;;;5072712;28;20463;-79
2023/07/21 10:56:11;;;;;;;2.83;1.88;;;;;;;;;;5072836;28;20456;-79
2023/07/21 10:58:37;;;;;;;3.40;1.65;;;;;;;;;;5072444;28;20051;-79
2023/07/21 11:01:03;;;;;;;3.17;1.83;;;;;;;;;;5070733;28;20041;-79
2023/07/21 11:03:32;;;;;;;2.92;1.80;;;;;;;;;;5069248;28;20041;-79
2023/07/21 11:05:58;;;;;;;3.72;1.83;;;;;;;;;;5054089;28;20048;-80
2023/07/21 11:08:29;;;;;;;5.55;1.90;;;;;;;;;;5070292;28;20044;-80
2023/07/21 11:10:55;;;;;;;3.97;1.90;;;;;;;;;;5070773;28;20040;-80
2023/07/21 11:13:22;;;;;;;3.55;1.92;;;;;;;;;;5071382;28;20049;-77
2023/07/21 11:15:54;;;;;;;3.20;1.90;;;;;;;;;;5070693;28;20089;-77
2023/07/21 11:18:21;;;;;;;3.75;2.00;;;;;;;;;;5070949;28;20374;-76
2023/07/21 11:20:51;;;;;;;3.45;1.77;;;;;;;;;;5054240;28;20044;-78
2023/07/21 11:23:17;;;;;;;5.00;2.00;;;;;;;;;;5071699;28;20135;-76
2023/07/21 11:26:02;;;;;;;3.40;1.90;;;;;;;;;;5070588;28;20084;-80
2023/07/21 11:28:29;;;;;;;3.22;1.88;;;;;;;;;;5070802;28;20461;-78
2023/07/21 11:30:55;;;;;;;4.80;2.17;;;;;;;;;;5054306;28;20143;-79
2023/07/21 11:33:22;;;;;;;4.60;2.00;;;;;;;;;;5071261;28;20457;-80
2023/07/21 11:35:48;;;;;;;3.58;2.00;;;;;;;;;;5072348;28;20052;-80
2023/07/21 11:38:14;;;;;;;3.28;1.80;;;;;;;;;;5071552;28;20489;-78
2023/07/21 11:40:41;;;;;;;4.03;1.90;;;;;;;;;;5071533;28;20112;-78
2023/07/21 11:43:10;;;;;;;3.90;1.90;;;;;;;;;;5067451;28;20045;-78
2023/07/21 11:45:40;;;;;;;4.93;2.20;;;;;;;;;;5082699;28;20060;-79
2023/07/21 11:48:12;;;;;;;2.83;2.00;;;;;;;;;;5073635;28;20048;-79
2023/07/21 11:50:41;;;;;;;3.55;1.92;;;;;;;;;;5071784;28;20173;-78
2023/07/21 11:53:07;;;;;;;4.75;2.08;;;;;;;;;;5069278;28;20053;-79
2023/07/21 11:55:34;;;;;;;4.38;2.22;;;;;;;;;;5091437;28;20083;-79
2023/07/21 11:58:00;;;;;;;4.43;2.30;;;;;;;;;;5073428;28;20396;-78
2023/07/21 12:00:27;;;;;;;4.03;2.10;;;;;;;;;;5088309;28;20478;-79
2023/07/21 12:02:57;;;;;;;3.85;2.20;;;;;;;;;;5090453;28;20354;-79
2023/07/21 12:05:26;;;;;;;5.43;2.30;;;;;;;;;;5081805;28;20044;-79
2023/07/21 12:07:52;;;;;;;3.83;2.20;;;;;;;;;;5070396;28;20048;-79
2023/07/21 12:10:19;;;;;;;6.38;2.13;;;;;;;;;;5072467;28;20508;-79
2023/07/21 12:12:45;;;;;;;8.60;2.60;;;;;;;;;;5090414;28;20036;-79
2023/07/21 12:15:11;;;;;;;7.00;2.40;;;;;;;;;;5089080;28;20055;-80
2023/07/21 12:17:37;;;;;;;8.57;2.75;;;;;;;;;;5069497;28;20131;-80
2023/07/21 12:20:11;;;;;;;9.63;2.75;;;;;;;;;;5072690;28;20529;-79
2023/07/21 12:22:40;;;;;;;5.28;2.63;;;;;;;;;;5067679;28;20047;-76
2023/07/21 12:25:07;;;;;;;5.82;2.78;;;;;;;;;;5055780;28;20353;-76
2023/07/21 12:27:34;;;;;;;8.23;2.88;;;;;;;;;;5056364;28;20039;-77
2023/07/21 12:30:02;;;;;;;6.28;3.00;;;;;;;;;;5088939;28;20044;-76
2023/07/21 12:32:28;;;;;;;8.95;3.33;;;;;;;;;;5090630;28;20119;-77
2023/07/21 12:34:54;;;;;;;6.75;2.90;;;;;;;;;;5089967;28;20044;-77
2023/07/21 12:37:20;;;;;;;7.40;2.95;;;;;;;;;;5089826;28;20484;-75
2023/07/21 12:39:46;;;;;;;6.43;3.10;;;;;;;;;;5090267;28;20119;-76
2023/07/21 12:42:12;;;;;;;8.88;3.05;;;;;;;;;;5090032;28;20052;-75
2023/07/21 12:44:38;;;;;;;6.25;3.00;;;;;;;;;;5090080;28;20404;-76
2023/07/21 12:47:06;;;;;;;4.25;2.67;;;;;;;;;;5071911;28;20388;-76
2023/07/21 12:49:32;;;;;;;4.93;3.00;;;;;;;;;;5072516;28;20397;-77
2023/07/21 12:51:58;;;;;;;7.07;3.25;;;;;;;;;;5089818;28;20052;-77
2023/07/21 12:54:25;;;;;;;6.88;3.05;;;;;;;;;;5090035;28;20052;-77
2023/07/21 12:56:51;;;;;;;5.45;2.97;;;;;;;;;;5072081;28;20080;-76
2023/07/21 12:59:17;;;;;;;6.82;3.00;;;;;;;;;;5089754;28;20056;-75
2023/07/21 13:01:43;;;;;;;7.32;3.40;;;;;;;;;;5089861;28;20054;-76
2023/07/21 13:04:12;;;;;;;6.90;3.90;;;;;;;;;;5090125;28;20147;-75
2023/07/21 13:06:38;;;;;;;7.88;3.28;;;;;;;;;;5071556;28;20206;-76
2023/07/21 13:09:05;;;;;;;5.88;2.60;;;;;;;;;;5071890;28;20500;-77
2023/07/21 13:11:31;;;;;;;4.75;2.60;;;;;;;;;;5089701;28;20485;-76
2023/07/21 13:13:57;;;;;;;4.65;2.90;;;;;;;;;;5090327;28;20054;-75
2023/07/21 13:16:23;;;;;;;5.13;2.60;;;;;;;;;;5095797;28;20044;-76
2023/07/21 13:18:50;;;;;;;6.90;3.40;;;;;;;;;;5095916;28;20074;-75
2023/07/21 13:21:16;;;;;;;5.22;2.95;;;;;;;;;;5091380;28;20055;-74
2023/07/21 13:23:42;;;;;;;4.72;3.00;;;;;;;;;;5071890;28;20419;-79
2023/07/21 13:26:08;;;;;;;5.75;3.10;;;;;;;;;;5071150;28;20040;-79
2023/07/21 13:28:34;;;;;;;5.90;3.30;;;;;;;;;;5090192;28;20047;-80
2023/07/21 13:31:00;;;;;;;5.15;3.10;;;;;;;;;;5071318;28;20044;-78
2023/07/21 13:33:27;;;;;;;5.85;3.38;;;;;;;;;;5071468;28;20047;-78
2023/07/21 13:35:54;;;;;;;5.47;3.50;;;;;;;;;;5089662;28;20040;-77
2023/07/21 13:38:20;;;;;;;6.80;3.60;;;;;;;;;;5089659;28;20111;-78
2023/07/21 13:40:46;;;;;;;4.13;2.83;;;;;;;;;;5071549;28;20047;-79
2023/07/21 13:43:13;;;;;;;6.00;2.85;;;;;;;;;;5070339;28;20047;-78
2023/07/21 13:45:39;;;;;;;4.22;2.78;;;;;;;;;;5089133;28;20048;-77
2023/07/21 13:48:05;;;;;;;3.90;2.60;;;;;;;;;;5079946;28;20056;-79
2023/07/21 13:50:31;;;;;;;3.10;2.30;;;;;;;;;;5070169;28;20047;-78
2023/07/21 13:52:57;;;;;;;4.65;2.72;;;;;;;;;;5085586;28;20040;-79
2023/07/21 13:55:23;;;;;;;4.13;2.80;;;;;;;;;;5069313;28;20052;-79
2023/07/21 13:57:49;;;;;;;4.38;2.95;;;;;;;;;;5070747;28;20500;-78
2023/07/21 14:00:21;;;;;;;5.10;3.20;;;;;;;;;;5079417;28;20048;-78
2023/07/21 14:02:47;;;;;;;4.55;2.95;;;;;;;;;;5087912;28;20068;-78
2023/07/21 14:05:16;;;;;;;4.78;2.90;;;;;;;;;;5075583;28;20048;-79
2023/07/21 14:07:44;;;;;;;4.55;3.03;;;;;;;;;;5088753;28;20492;-79
2023/07/21 14:10:11;;;;;;;4.55;2.97;;;;;;;;;;5062330;28;20097;-78
2023/07/21 14:12:37;;;;;;;4.40;2.72;;;;;;;;;;5070352;28;20599;-77
2023/07/21 14:15:03;;;;;;;5.38;2.90;;;;;;;;;;5087612;28;20484;-77
2023/07/21 14:17:30;;;;;;;4.97;3.17;;;;;;;;;;5057606;28;20044;-78
2023/07/21 14:19:56;;;;;;;4.82;3.20;;;;;;;;;;5087855;28;20133;-78
2023/07/21 14:22:22;;;;;;;4.50;2.97;;;;;;;;;;5089011;28;20048;-77
2023/07/21 14:24:48;;;;;;;4.82;3.05;;;;;;;;;;5088781;28;20051;-78
2023/07/21 14:27:15;;;;;;;5.63;3.47;;;;;;;;;;5064276;28;20084;-77
2023/07/21 14:29:41;;;;;;;5.22;3.17;;;;;;;;;;5085978;28;20435;-77
2023/07/21 14:32:07;;;;;;;4.50;3.22;;;;;;;;;;5088803;28;20044;-77
2023/07/21 14:34:33;;;;;;;6.13;3.20;;;;;;;;;;5087251;28;20432;-77
2023/07/21 14:36:59;;;;;;;7.03;3.75;;;;;;;;;;5088452;28;20044;-78
2023/07/21 14:39:25;;;;;;;5.13;3.08;;;;;;;;;;5088682;28;20114;-77
2023/07/21 14:41:51;;;;;;;5.00;3.40;;;;;;;;;;5088495;28;20055;-77